Time;durP1;ratioP1;P1;durP2;ratioP2;P2;SDS_P1;SDS_P2;PMS_P1;PMS_P2;Temp;Humidity;BMP_temperature;BMP_pressure;BME280_temperature;BME280_humidity;BME280_pressure;Samples;Min_cycle;Max_cycle;Signal;HPM_P1;HPM_P2
2021/08/26 00:07:35;;;;;;;1.87;1.10;;;15.80;99.90;;;;;;4996217;28;20576;-81
2021/08/26 00:10:06;;;;;;;1.90;1.00;;;15.80;99.90;;;;;;4995228;28;20188;-82
2021/08/26 00:12:38;;;;;;;2.83;1.40;;;15.90;99.90;;;;;;4995925;28;20272;-82
2021/08/26 00:15:05;;;;;;;2.07;1.30;;;15.90;99.90;;;;;;4995544;28;20275;-81
2021/08/26 00:17:31;;;;;;;1.90;1.30;;;15.90;99.90;;;;;;4995336;28;20180;-82
2021/08/26 00:19:57;;;;;;;3.97;1.50;;;15.90;99.90;;;;;;4978824;28;20203;-81
2021/08/26 00:22:22;;;;;;;2.40;1.57;;;15.90;99.90;;;;;;4995404;28;20183;-81
2021/08/26 00:24:48;;;;;;;2.40;1.40;;;15.90;99.90;;;;;;4995365;28;20230;-81
2021/08/26 00:27:13;;;;;;;3.50;1.60;;;15.90;99.90;;;;;;4995567;28;20178;-81
2021/08/26 00:29:39;;;;;;;3.97;1.50;;;15.90;99.90;;;;;;4994643;28;20209;-80
2021/08/26 00:32:05;;;;;;;3.47;1.53;;;15.80;99.90;;;;;;4995199;28;20250;-81
2021/08/26 00:34:31;;;;;;;2.10;1.50;;;15.90;99.90;;;;;;4994968;28;20184;-81
2021/08/26 00:36:56;;;;;;;2.70;1.60;;;15.90;99.90;;;;;;4978659;28;20187;-82
2021/08/26 00:39:22;;;;;;;4.30;1.90;;;15.90;99.90;;;;;;4994917;28;20687;-82
2021/08/26 00:41:48;;;;;;;2.63;1.80;;;15.90;99.90;;;;;;4995322;28;20283;-82
2021/08/26 00:44:13;;;;;;;3.27;1.87;;;15.90;99.90;;;;;;4995541;28;20180;-82
2021/08/26 00:46:40;;;;;;;4.83;2.00;;;15.90;99.90;;;;;;4995242;28;20177;-81
2021/08/26 00:49:11;;;;;;;2.83;1.97;;;15.90;99.90;;;;;;4994843;28;20212;-82
2021/08/26 00:51:36;;;;;;;3.80;1.97;;;15.90;99.90;;;;;;4995317;28;20647;-82
2021/08/26 00:54:02;;;;;;;5.20;2.13;;;15.90;99.90;;;;;;4994951;28;20199;-82
2021/08/26 00:56:28;;;;;;;3.53;1.90;;;15.90;99.90;;;;;;4978532;28;20179;-80
2021/08/26 00:58:53;;;;;;;3.10;1.63;;;15.90;99.90;;;;;;4978337;28;20200;-80
2021/08/26 01:01:24;;;;;;;4.10;2.10;;;15.90;99.90;;;;;;4994658;28;20180;-80
2021/08/26 01:03:56;;;;;;;5.13;2.30;;;15.90;99.90;;;;;;4994754;28;20177;-80
2021/08/26 01:06:30;;;;;;;3.90;1.90;;;15.90;99.90;;;;;;4995446;28;20191;-82
2021/08/26 01:09:02;;;;;;;4.80;2.80;;;15.90;99.90;;;;;;4978180;28;20216;-80
2021/08/26 01:11:28;;;;;;;3.53;2.30;;;15.80;99.90;;;;;;4994926;28;20550;-80
2021/08/26 01:13:53;;;;;;;3.83;2.30;;;15.90;99.90;;;;;;4994389;28;20175;-81
2021/08/26 01:16:19;;;;;;;2.30;1.77;;;15.90;99.90;;;;;;4994105;28;20239;-81
2021/08/26 01:18:46;;;;;;;4.17;1.90;;;15.90;99.90;;;;;;4977623;28;20697;-81
2021/08/26 01:21:12;;;;;;;4.83;2.17;;;15.90;99.90;;;;;;4994461;28;20223;-81
2021/08/26 01:23:41;;;;;;;3.17;1.80;;;15.90;99.90;;;;;;4994666;28;20171;-80
2021/08/26 01:26:07;;;;;;;5.17;2.10;;;15.80;99.90;;;;;;4978450;28;20180;-81
2021/08/26 01:28:36;;;;;;;3.53;2.00;;;15.80;99.90;;;;;;4993937;28;20216;-81
2021/08/26 01:31:02;;;;;;;4.73;1.83;;;15.80;99.90;;;;;;4993701;28;20186;-81
2021/08/26 01:33:28;;;;;;;3.80;1.93;;;15.80;99.90;;;;;;4993859;28;20200;-80
2021/08/26 01:35:53;;;;;;;4.30;1.83;;;15.80;99.90;;;;;;4977562;28;20207;-81
2021/08/26 01:38:25;;;;;;;3.93;1.77;;;15.80;99.90;;;;;;4993937;28;20211;-81
2021/08/26 01:40:51;;;;;;;4.60;2.00;;;15.70;99.90;;;;;;4977236;28;20196;-81
2021/08/26 01:43:18;;;;;;;3.63;1.90;;;15.70;99.90;;;;;;4990980;28;20197;-80
2021/08/26 01:45:45;;;;;;;5.20;2.00;;;15.70;99.90;;;;;;4990212;28;20180;-80
2021/08/26 01:48:12;;;;;;;5.20;2.13;;;15.70;99.90;;;;;;4973670;28;20275;-80
2021/08/26 01:50:37;;;;;;;5.70;2.10;;;15.70;99.90;;;;;;4974082;28;20173;-80
2021/08/26 01:53:04;;;;;;;6.63;2.07;;;15.70;99.90;;;;;;4976391;28;20534;-82
2021/08/26 01:55:30;;;;;;;4.30;2.10;;;15.70;99.90;;;;;;4999536;28;20185;-81
2021/08/26 01:57:56;;;;;;;6.70;2.13;;;15.60;99.90;;;;;;4997172;28;20228;-81
2021/08/26 02:00:22;;;;;;;4.13;1.90;;;15.60;99.90;;;;;;4984842;28;20260;-81
2021/08/26 02:02:47;;;;;;;6.87;2.10;;;15.60;99.90;;;;;;4977502;28;20200;-81
2021/08/26 02:05:14;;;;;;;5.83;2.30;;;15.60;99.90;;;;;;4973475;28;20174;-81
2021/08/26 02:07:46;;;;;;;4.47;2.03;;;15.60;99.90;;;;;;4973684;28;20180;-82
2021/08/26 02:10:11;;;;;;;5.53;2.03;;;15.60;99.90;;;;;;4973999;28;20205;-80
2021/08/26 02:12:37;;;;;;;8.67;2.30;;;15.50;99.90;;;;;;4958055;28;20743;-82
2021/08/26 02:15:04;;;;;;;5.97;2.47;;;15.60;99.90;;;;;;4976079;28;20294;-82
2021/08/26 02:17:31;;;;;;;8.20;2.80;;;15.60;99.90;;;;;;4960389;28;20187;-82
2021/08/26 02:19:57;;;;;;;7.67;2.10;;;15.60;99.90;;;;;;4959479;28;20794;-81
2021/08/26 02:22:22;;;;;;;6.60;2.30;;;15.60;99.90;;;;;;4976436;28;20192;-82
2021/08/26 02:24:48;;;;;;;6.33;2.43;;;15.50;99.90;;;;;;4959831;28;20187;-82
2021/08/26 02:27:14;;;;;;;5.50;2.30;;;15.40;99.90;;;;;;4960658;28;20177;-82
2021/08/26 02:29:40;;;;;;;7.37;2.50;;;15.40;99.90;;;;;;4960091;28;20704;-81
2021/08/26 02:32:05;;;;;;;6.10;2.27;;;15.30;99.90;;;;;;4959665;28;20192;-83
2021/08/26 02:34:31;;;;;;;6.53;2.33;;;15.30;99.90;;;;;;4960618;28;20308;-83
2021/08/26 02:36:56;;;;;;;5.60;2.47;;;15.30;99.90;;;;;;4976963;28;20255;-81
2021/08/26 02:39:23;;;;;;;5.60;2.60;;;15.30;99.90;;;;;;4959719;28;20593;-83
2021/08/26 02:41:49;;;;;;;6.60;2.40;;;15.20;99.90;;;;;;4959069;28;20184;-82
2021/08/26 02:44:14;;;;;;;6.00;2.30;;;15.20;99.90;;;;;;4959193;28;20181;-82
2021/08/26 02:46:40;;;;;;;5.13;2.27;;;15.20;99.90;;;;;;4975365;28;20259;-82
2021/08/26 02:49:06;;;;;;;5.30;2.30;;;15.20;99.90;;;;;;4959121;28;20248;-83
2021/08/26 02:51:31;;;;;;;5.83;2.37;;;15.20;99.90;;;;;;4959587;28;20268;-82
2021/08/26 02:53:57;;;;;;;6.17;2.10;;;15.20;99.90;;;;;;4959784;28;20656;-81
2021/08/26 02:56:22;;;;;;;6.73;2.50;;;15.20;99.90;;;;;;4959610;28;20227;-82
2021/08/26 02:58:49;;;;;;;6.60;2.67;;;15.20;99.90;;;;;;4960692;28;20205;-83
2021/08/26 03:01:15;;;;;;;6.63;2.30;;;15.20;99.90;;;;;;4964280;28;20275;-81
2021/08/26 03:03:42;;;;;;;6.73;2.47;;;15.20;99.90;;;;;;4964156;28;20181;-82
2021/08/26 03:06:09;;;;;;;5.27;2.53;;;15.10;99.90;;;;;;4963917;28;20649;-82
2021/08/26 03:08:35;;;;;;;6.77;2.33;;;15.10;99.90;;;;;;4947692;28;20216;-82
2021/08/26 03:11:01;;;;;;;5.23;2.53;;;15.10;99.90;;;;;;4963258;28;20215;-82
2021/08/26 03:13:26;;;;;;;6.57;2.53;;;15.10;99.90;;;;;;4963451;28;20172;-82
2021/08/26 03:15:52;;;;;;;7.40;2.87;;;15.10;99.90;;;;;;4962991;28;20177;-82
2021/08/26 03:18:17;;;;;;;8.17;2.80;;;15.00;99.90;;;;;;4979444;28;20232;-81
2021/08/26 03:20:43;;;;;;;5.70;2.67;;;15.00;99.90;;;;;;4962507;28;20193;-81
2021/08/26 03:23:09;;;;;;;7.97;2.57;;;15.00;99.90;;;;;;4963704;28;20196;-83
2021/08/26 03:25:34;;;;;;;7.27;2.37;;;15.00;99.90;;;;;;4963240;28;20596;-83
2021/08/26 03:28:01;;;;;;;9.50;2.63;;;15.00;99.90;;;;;;4978623;28;20288;-83
2021/08/26 03:30:27;;;;;;;5.60;2.83;;;15.00;99.90;;;;;;4963484;28;20732;-84
2021/08/26 03:32:52;;;;;;;10.53;3.07;;;15.00;99.90;;;;;;4963473;28;20204;-82
2021/08/26 03:35:18;;;;;;;8.13;2.60;;;15.00;99.90;;;;;;4962708;28;20176;-83
2021/08/26 03:37:44;;;;;;;7.03;2.60;;;15.00;99.90;;;;;;4962760;28;20172;-82
2021/08/26 03:40:10;;;;;;;8.13;2.57;;;15.00;99.90;;;;;;4959935;28;20232;-82
2021/08/26 03:42:36;;;;;;;9.30;2.70;;;15.00;99.90;;;;;;4976400;28;20185;-81
2021/08/26 03:45:01;;;;;;;10.13;2.53;;;15.00;99.90;;;;;;4959986;28;20569;-80
2021/08/26 03:47:27;;;;;;;6.37;2.53;;;15.00;99.90;;;;;;4960151;28;20281;-80
2021/08/26 03:49:54;;;;;;;9.97;2.70;;;14.90;99.90;;;;;;4960100;28;20216;-81
2021/08/26 03:52:19;;;;;;;8.00;2.80;;;14.90;99.90;;;;;;4944679;28;20181;-81
2021/08/26 03:54:45;;;;;;;10.30;2.80;;;14.90;99.90;;;;;;4960537;28;20195;-81
2021/08/26 03:57:11;;;;;;;11.93;3.10;;;14.90;99.90;;;;;;4960338;28;20185;-81
2021/08/26 03:59:36;;;;;;;7.53;2.83;;;14.90;99.90;;;;;;4961857;28;20228;-81
2021/08/26 04:02:04;;;;;;;9.80;2.67;;;14.90;99.90;;;;;;4964394;28;20177;-83
2021/08/26 04:04:30;;;;;;;8.53;2.83;;;14.90;99.90;;;;;;4965044;28;20215;-82
2021/08/26 04:06:56;;;;;;;8.07;2.53;;;14.90;99.90;;;;;;4980661;28;20710;-84
2021/08/26 04:09:21;;;;;;;7.03;2.60;;;14.90;99.90;;;;;;4963853;28;20313;-84
2021/08/26 04:11:47;;;;;;;10.73;2.87;;;14.90;99.90;;;;;;4963393;28;20209;-84
2021/08/26 04:14:13;;;;;;;7.73;3.10;;;14.90;99.90;;;;;;4964643;28;20184;-82
2021/08/26 04:16:40;;;;;;;8.93;2.60;;;14.90;99.90;;;;;;4964815;28;20182;-82
2021/08/26 04:19:06;;;;;;;9.57;2.80;;;14.90;99.90;;;;;;4964400;28;20484;-83
2021/08/26 04:21:32;;;;;;;9.27;2.60;;;14.90;99.90;;;;;;4964224;28;20208;-82
2021/08/26 04:23:58;;;;;;;12.40;3.13;;;14.90;99.90;;;;;;4959784;28;20196;-81
2021/08/26 04:26:23;;;;;;;8.97;2.70;;;14.90;99.90;;;;;;4959410;28;20185;-81
2021/08/26 04:28:49;;;;;;;8.10;2.37;;;14.90;99.90;;;;;;4975081;28;20240;-82
2021/08/26 04:31:15;;;;;;;7.17;2.40;;;15.00;99.90;;;;;;4975765;28;20184;-80
2021/08/26 04:33:40;;;;;;;11.60;2.80;;;14.90;99.90;;;;;;4959557;28;20177;-81
2021/08/26 04:36:06;;;;;;;7.27;2.63;;;14.90;99.90;;;;;;4958971;28;20243;-80
2021/08/26 04:38:32;;;;;;;8.80;2.67;;;14.90;99.90;;;;;;4959519;28;20292;-80
2021/08/26 04:40:58;;;;;;;8.23;2.50;;;14.90;99.90;;;;;;4958939;28;20196;-80
2021/08/26 04:43:23;;;;;;;10.23;2.80;;;14.90;99.90;;;;;;4975555;28;20188;-81
2021/08/26 04:45:49;;;;;;;9.23;2.90;;;14.90;99.90;;;;;;4975029;28;20653;-80
2021/08/26 04:48:14;;;;;;;11.17;2.90;;;14.90;99.90;;;;;;4979250;28;20295;-81
2021/08/26 04:50:40;;;;;;;8.17;2.70;;;14.90;99.90;;;;;;4980675;28;20312;-80
2021/08/26 04:53:05;;;;;;;8.93;2.63;;;14.90;99.90;;;;;;4958107;28;20232;-81
2021/08/26 04:55:31;;;;;;;9.23;2.60;;;14.90;99.90;;;;;;4958671;28;20192;-80
2021/08/26 04:57:56;;;;;;;8.57;2.70;;;14.90;99.90;;;;;;4973870;28;20212;-80
2021/08/26 05:00:22;;;;;;;7.47;2.73;;;14.90;99.90;;;;;;4974913;28;20177;-80
2021/08/26 05:02:48;;;;;;;8.10;2.63;;;14.90;99.90;;;;;;4974650;28;20185;-79
2021/08/26 05:05:13;;;;;;;11.40;2.40;;;14.90;99.90;;;;;;4972427;28;20645;-80
2021/08/26 05:07:39;;;;;;;10.47;2.90;;;14.90;99.90;;;;;;4975288;28;20177;-79
2021/08/26 05:10:05;;;;;;;4.97;2.23;;;14.90;99.90;;;;;;4974562;28;20248;-80
2021/08/26 05:12:31;;;;;;;7.60;2.57;;;14.90;99.90;;;;;;4974595;28;20188;-80
2021/08/26 05:14:56;;;;;;;9.27;2.70;;;14.90;99.90;;;;;;4974602;28;20188;-79
2021/08/26 05:17:22;;;;;;;7.20;2.63;;;14.90;99.90;;;;;;4974872;28;20185;-81
2021/08/26 05:19:48;;;;;;;9.57;2.50;;;14.90;99.90;;;;;;4989844;28;20570;-81
2021/08/26 05:22:13;;;;;;;6.93;2.73;;;14.80;99.90;;;;;;4980093;28;20298;-82
2021/08/26 05:24:39;;;;;;;6.30;2.50;;;14.80;99.90;;;;;;4974246;28;20188;-80
2021/08/26 05:27:04;;;;;;;9.57;2.63;;;14.80;99.90;;;;;;4974530;28;20181;-81
2021/08/26 05:29:30;;;;;;;7.07;2.20;;;14.90;99.90;;;;;;4974084;28;20219;-81
2021/08/26 05:31:56;;;;;;;9.87;2.87;;;14.90;99.90;;;;;;4991289;28;20276;-81
2021/08/26 05:34:21;;;;;;;11.30;2.70;;;14.90;99.90;;;;;;4974289;28;20209;-79
2021/08/26 05:36:47;;;;;;;8.80;2.40;;;14.90;99.90;;;;;;4990732;28;20177;-78
2021/08/26 05:39:12;;;;;;;8.43;2.80;;;14.90;99.90;;;;;;4973589;28;20267;-79
2021/08/26 05:41:43;;;;;;;6.47;2.60;;;14.90;99.90;;;;;;4989925;28;20165;-78
2021/08/26 05:44:11;;;;;;;5.47;2.40;;;15.00;99.90;;;;;;4974582;28;20227;-78
2021/08/26 05:46:36;;;;;;;8.67;2.83;;;15.00;99.90;;;;;;4973760;28;20823;-79
2021/08/26 05:49:02;;;;;;;6.23;2.17;;;15.10;99.90;;;;;;4973387;28;20242;-78
2021/08/26 05:51:28;;;;;;;11.07;2.30;;;15.10;99.90;;;;;;4973590;28;20177;-78
2021/08/26 05:53:54;;;;;;;7.07;2.90;;;15.10;99.90;;;;;;4974078;28;20181;-79
2021/08/26 05:56:20;;;;;;;6.13;2.40;;;15.10;99.90;;;;;;4974501;28;20188;-87
2021/08/26 05:58:45;;;;;;;8.40;2.50;;;15.10;99.90;;;;;;4977352;28;20208;-86
2021/08/26 06:01:11;;;;;;;8.87;2.50;;;15.10;99.90;;;;;;4976538;28;20192;-85
2021/08/26 06:03:37;;;;;;;7.40;2.57;;;15.10;99.90;;;;;;4977448;28;20196;-86
2021/08/26 06:06:02;;;;;;;8.20;2.57;;;15.10;99.90;;;;;;4960177;28;20184;-86
2021/08/26 06:08:29;;;;;;;6.63;2.50;;;15.10;99.90;;;;;;4975971;28;20640;-87
2021/08/26 06:10:55;;;;;;;12.10;2.77;;;15.10;99.90;;;;;;4976745;28;20180;-86
2021/08/26 06:13:21;;;;;;;8.23;2.97;;;15.20;99.90;;;;;;4976958;28;20196;-86
2021/08/26 06:15:47;;;;;;;6.97;2.40;;;15.20;99.90;;;;;;4976137;28;20193;-88
2021/08/26 06:18:15;;;;;;;7.50;2.40;;;15.10;99.90;;;;;;4975968;28;20181;-86
2021/08/26 06:20:42;;;;;;;8.10;3.00;;;15.10;99.90;;;;;;4976083;28;20193;-86
2021/08/26 06:23:07;;;;;;;6.70;2.50;;;15.20;99.90;;;;;;4976126;28;20184;-86
2021/08/26 06:25:33;;;;;;;6.53;2.03;;;15.20;99.90;;;;;;4975404;28;20789;-86
2021/08/26 06:27:59;;;;;;;9.10;2.00;;;15.20;99.90;;;;;;4975772;28;20192;-84
2021/08/26 06:30:25;;;;;;;7.17;1.97;;;15.20;99.90;;;;;;4975496;28;20203;-84
2021/08/26 06:32:51;;;;;;;8.83;2.27;;;15.30;99.90;;;;;;4974748;28;20185;-87
2021/08/26 06:35:16;;;;;;;7.70;2.10;;;15.30;99.90;;;;;;4975518;28;20185;-81
2021/08/26 06:37:42;;;;;;;10.00;2.30;;;15.40;99.90;;;;;;4990305;28;20609;-81
2021/08/26 06:40:08;;;;;;;9.10;2.63;;;15.60;99.90;;;;;;5028507;23;20228;-82
2021/08/26 06:42:33;;;;;;;4.17;2.40;;;16.00;99.90;;;;;;4987709;28;20190;-80
2021/08/26 06:44:59;;;;;;;7.37;1.90;;;16.30;99.90;;;;;;5013122;28;20841;-80
2021/08/26 06:47:25;;;;;;;6.87;2.43;;;16.30;99.90;;;;;;4997370;28;20562;-80
2021/08/26 06:49:50;;;;;;;6.23;2.10;;;16.30;99.90;;;;;;4981539;28;20218;-80
2021/08/26 06:52:16;;;;;;;7.10;2.10;;;16.10;99.90;;;;;;5015109;28;20172;-80
2021/08/26 06:54:41;;;;;;;8.60;1.93;;;16.10;99.90;;;;;;5014903;28;20183;-80
2021/08/26 06:57:07;;;;;;;7.00;2.30;;;16.10;99.90;;;;;;4998316;28;20221;-80
2021/08/26 06:59:32;;;;;;;8.37;2.30;;;16.20;99.90;;;;;;5014136;28;20206;-80
2021/08/26 07:01:58;;;;;;;8.77;1.97;;;16.20;99.90;;;;;;4998296;28;20197;-80
2021/08/26 07:04:24;;;;;;;7.03;1.80;;;16.30;99.90;;;;;;5014589;28;20184;-80
2021/08/26 07:06:53;;;;;;;5.73;1.60;;;16.30;99.90;;;;;;5014147;28;20186;-80
2021/08/26 07:09:19;;;;;;;9.73;2.23;;;16.30;99.90;;;;;;4998921;28;20635;-81
2021/08/26 07:11:45;;;;;;;9.17;2.50;;;16.20;99.90;;;;;;5005158;28;20222;-81
2021/08/26 07:14:10;;;;;;;7.40;2.23;;;16.20;99.90;;;;;;4992886;28;20215;-82
2021/08/26 07:16:36;;;;;;;6.43;2.13;;;16.30;99.90;;;;;;4976447;28;20192;-81
2021/08/26 07:19:02;;;;;;;6.23;1.77;;;16.30;99.90;;;;;;4992792;28;20255;-80
2021/08/26 07:21:27;;;;;;;5.40;1.90;;;16.30;99.90;;;;;;4993201;28;20179;-81
2021/08/26 07:23:53;;;;;;;7.23;2.30;;;16.30;99.90;;;;;;4993016;28;20168;-81
2021/08/26 07:26:19;;;;;;;6.03;2.13;;;16.30;99.90;;;;;;4994279;28;20171;-80
2021/08/26 07:28:45;;;;;;;6.93;2.07;;;16.20;99.90;;;;;;4994486;28;20214;-80
2021/08/26 07:31:11;;;;;;;7.67;2.30;;;16.20;99.90;;;;;;4981186;28;20339;-80
2021/08/26 07:33:36;;;;;;;9.60;2.30;;;16.10;99.90;;;;;;4979355;28;20655;-80
2021/08/26 07:36:05;;;;;;;8.50;2.20;;;16.00;99.90;;;;;;4978919;28;20176;-80
2021/08/26 07:38:30;;;;;;;6.23;2.20;;;16.00;99.90;;;;;;4994683;28;20690;-80
2021/08/26 07:40:56;;;;;;;6.13;2.07;;;15.90;99.90;;;;;;4994726;28;20176;-80
2021/08/26 07:43:25;;;;;;;11.03;2.67;;;15.90;99.90;;;;;;4994467;28;20545;-80
2021/08/26 07:45:53;;;;;;;8.17;2.20;;;15.80;99.90;;;;;;4997663;28;20545;-80
2021/08/26 07:48:19;;;;;;;9.87;2.50;;;15.80;99.90;;;;;;4982975;28;20198;-81
2021/08/26 07:50:45;;;;;;;7.00;2.03;;;15.90;99.90;;;;;;4981287;28;20174;-80
2021/08/26 07:53:10;;;;;;;9.17;2.43;;;15.90;99.90;;;;;;4981380;28;20179;-80
2021/08/26 07:55:36;;;;;;;8.93;2.47;;;16.00;99.90;;;;;;4999034;28;20227;-81
2021/08/26 07:58:03;;;;;;;10.23;2.03;;;16.10;99.90;;;;;;4997503;28;20183;-80
2021/08/26 08:00:29;;;;;;;11.03;2.83;;;16.10;99.90;;;;;;5001178;28;20199;-80
2021/08/26 08:02:54;;;;;;;9.60;2.57;;;16.20;99.90;;;;;;4999452;28;20214;-80
2021/08/26 08:05:20;;;;;;;8.57;2.23;;;16.30;99.90;;;;;;5014938;28;20612;-80
2021/08/26 08:07:45;;;;;;;5.73;2.30;;;16.30;99.90;;;;;;4998349;28;20197;-79
2021/08/26 08:10:12;;;;;;;12.53;2.60;;;16.30;99.90;;;;;;4996285;28;20231;-81
2021/08/26 08:12:38;;;;;;;10.00;2.63;;;16.30;99.90;;;;;;5016516;28;20185;-79
2021/08/26 08:15:04;;;;;;;9.10;2.67;;;16.40;99.90;;;;;;5017838;28;20655;-80
2021/08/26 08:17:29;;;;;;;8.63;2.50;;;16.30;99.90;;;;;;5013336;28;20183;-80
2021/08/26 08:19:55;;;;;;;9.00;2.60;;;16.30;99.90;;;;;;5002201;28;20257;-79
2021/08/26 08:22:20;;;;;;;9.57;2.53;;;16.30;99.90;;;;;;5001176;28;20191;-79
2021/08/26 08:24:46;;;;;;;11.53;2.70;;;16.40;99.90;;;;;;5016677;28;20199;-78
2021/08/26 08:27:11;;;;;;;8.03;2.57;;;16.50;99.90;;;;;;5008715;28;20183;-79
2021/08/26 08:29:37;;;;;;;10.17;3.03;;;16.50;99.90;;;;;;5000677;28;20267;-80
2021/08/26 08:32:03;;;;;;;7.50;3.00;;;16.60;99.90;;;;;;4983438;28;20299;-81
2021/08/26 08:34:28;;;;;;;7.37;2.37;;;16.70;99.90;;;;;;4998752;28;20180;-80
2021/08/26 08:36:54;;;;;;;9.73;3.03;;;16.80;99.90;;;;;;4998287;28;20252;-82
2021/08/26 08:39:21;;;;;;;13.90;3.20;;;16.90;99.90;;;;;;4982164;28;20778;-81
2021/08/26 08:41:47;;;;;;;10.03;2.60;;;17.10;99.90;;;;;;4998463;28;20259;-81
2021/08/26 08:44:13;;;;;;;11.87;2.93;;;17.20;99.90;;;;;;4998592;28;20190;-81
2021/08/26 08:46:39;;;;;;;8.13;2.67;;;17.20;99.90;;;;;;4981360;28;20202;-82
2021/08/26 08:49:04;;;;;;;11.83;3.00;;;17.30;99.90;;;;;;4981496;28;20219;-82
2021/08/26 08:51:30;;;;;;;6.90;2.67;;;17.30;99.90;;;;;;4980956;28;20194;-82
2021/08/26 08:53:56;;;;;;;12.73;3.43;;;17.30;99.90;;;;;;4997828;28;20179;-81
2021/08/26 08:56:26;;;;;;;13.43;3.53;;;17.40;99.90;;;;;;4981679;28;20175;-82
2021/08/26 08:58:53;;;;;;;8.03;2.80;;;17.30;99.90;;;;;;4982095;28;20215;-82
2021/08/26 09:01:18;;;;;;;12.80;2.90;;;17.40;99.90;;;;;;4997368;28;20554;-82
2021/08/26 09:03:44;;;;;;;9.87;3.00;;;17.50;99.90;;;;;;4998023;28;20176;-81
2021/08/26 09:06:09;;;;;;;11.57;3.07;;;17.60;99.90;;;;;;4984673;28;20180;-81
2021/08/26 09:08:35;;;;;;;10.10;2.70;;;17.70;99.90;;;;;;4997301;28;20291;-82
2021/08/26 09:11:11;;;;;;;6.93;2.60;;;17.80;99.90;;;;;;4998572;28;20640;-81
2021/08/26 09:13:36;;;;;;;12.03;3.40;;;18.00;99.90;;;;;;4997402;28;20175;-82
2021/08/26 09:16:02;;;;;;;10.17;2.80;;;18.10;99.90;;;;;;4983633;28;20545;-82
2021/08/26 09:18:28;;;;;;;5.33;2.20;;;18.30;99.90;;;;;;4988370;28;20184;-82
2021/08/26 09:20:54;;;;;;;10.10;2.60;;;18.30;99.90;;;;;;5000633;28;20188;-81
2021/08/26 09:23:22;;;;;;;9.90;2.73;;;18.40;99.90;;;;;;4983628;28;20177;-82
2021/08/26 09:25:48;;;;;;;12.10;3.00;;;18.40;99.90;;;;;;5000111;28;20183;-80
2021/08/26 09:28:32;;;;;;;10.03;2.87;;;18.50;99.90;;;;;;4998833;28;20180;-81
2021/08/26 09:31:17;;;;;;;10.27;2.67;;;18.60;99.90;;;;;;4998719;28;20188;-82
2021/08/26 09:33:59;;;;;;;8.73;2.67;;;18.60;99.90;;;;;;4999936;28;20651;-81
2021/08/26 09:36:52;;;;;;;10.10;3.00;;;18.60;99.90;;;;;;4998472;28;20242;-81
2021/08/26 09:39:19;;;;;;;10.73;2.60;;;18.70;99.90;;;;;;4984545;28;20715;-81
2021/08/26 09:41:48;;;;;;;13.10;3.10;;;18.70;99.90;;;;;;4998611;28;20191;-81
2021/08/26 09:44:17;;;;;;;13.13;3.80;;;18.70;99.90;;;;;;4999397;28;20184;-81
2021/08/26 09:46:44;;;;;;;8.83;2.93;;;18.60;99.90;;;;;;4981782;28;20219;-82
2021/08/26 09:49:12;;;;;;;11.90;2.80;;;18.50;99.90;;;;;;4999368;28;20216;-79
2021/08/26 09:51:38;;;;;;;10.03;2.90;;;18.50;99.90;;;;;;4999230;28;20528;-80
2021/08/26 09:54:04;;;;;;;12.47;3.33;;;18.50;99.90;;;;;;4981933;28;20180;-81
2021/08/26 09:56:42;;;;;;;9.60;2.57;;;18.60;99.90;;;;;;4982603;28;20533;-82
2021/08/26 09:59:08;;;;;;;9.50;3.10;;;18.60;99.90;;;;;;5000078;28;20548;-78
2021/08/26 10:01:38;;;;;;;10.70;3.50;;;18.60;99.90;;;;;;4991451;28;20187;-78
2021/08/26 10:04:24;;;;;;;11.13;3.10;;;18.50;99.90;;;;;;5005115;28;20168;-78
2021/08/26 10:06:50;;;;;;;8.60;2.83;;;18.40;99.90;;;;;;5004641;28;20647;-78
2021/08/26 10:09:15;;;;;;;12.73;3.20;;;18.40;99.90;;;;;;4987254;28;20212;-78
2021/08/26 10:11:41;;;;;;;10.63;3.10;;;18.40;99.90;;;;;;5003009;28;20180;-78
2021/08/26 10:14:06;;;;;;;8.47;3.00;;;18.40;99.90;;;;;;4989419;28;20263;-78
2021/08/26 10:16:32;;;;;;;10.33;3.63;;;18.40;99.90;;;;;;5005501;28;20210;-78
2021/08/26 10:18:57;;;;;;;11.00;2.97;;;18.40;99.90;;;;;;4991572;28;20199;-78
2021/08/26 10:21:23;;;;;;;9.57;3.03;;;18.50;99.90;;;;;;5002893;28;20223;-78
2021/08/26 10:23:48;;;;;;;9.83;3.10;;;18.60;99.90;;;;;;4985366;28;20242;-78
2021/08/26 10:26:16;;;;;;;14.87;3.47;;;18.90;99.90;;;;;;5008877;28;20750;-78
2021/08/26 10:28:42;;;;;;;10.37;2.97;;;19.20;99.90;;;;;;4997652;28;20225;-78
2021/08/26 10:31:24;;;;;;;13.77;3.60;;;19.60;99.90;;;;;;5007107;28;20230;-78
2021/08/26 10:33:49;;;;;;;11.47;3.33;;;19.90;99.90;;;;;;5010323;28;20195;-78
2021/08/26 10:36:15;;;;;;;12.93;3.40;;;20.30;99.90;;;;;;4993638;28;20183;-78
2021/08/26 10:38:41;;;;;;;7.80;3.20;;;20.70;99.90;;;;;;5007785;28;20868;-78
2021/08/26 10:41:18;;;;;;;7.63;3.00;;;21.10;99.90;;;;;;5008474;28;20180;-79
2021/08/26 10:43:44;;;;;;;10.40;3.23;;;21.40;99.90;;;;;;5016244;28;20658;-80
2021/08/26 10:46:12;;;;;;;8.87;3.10;;;21.50;99.90;;;;;;4995158;28;20180;-80
2021/08/26 10:48:38;;;;;;;11.60;3.17;;;21.50;99.90;;;;;;5007402;28;20210;-85
2021/08/26 10:51:15;;;;;;;11.90;3.10;;;21.40;99.90;;;;;;4998722;28;20546;-82
2021/08/26 10:53:45;;;;;;;8.10;2.40;;;21.20;99.90;;;;;;4995967;28;20176;-81
2021/08/26 10:56:29;;;;;;;6.33;2.67;;;20.90;99.90;;;;;;4991513;28;20184;-80
2021/08/26 10:59:01;;;;;;;8.60;2.80;;;20.80;99.90;;;;;;4989404;28;20303;-79
2021/08/26 11:01:30;;;;;;;9.33;2.70;;;21.00;99.90;;;;;;4990435;28;20180;-79
2021/08/26 11:03:57;;;;;;;7.47;2.80;;;21.40;99.90;;;;;;4991900;28;20211;-79
2021/08/26 11:06:27;;;;;;;8.90;2.63;;;21.50;99.90;;;;;;4991379;28;20183;-79
2021/08/26 11:08:58;;;;;;;10.03;3.17;;;21.40;99.90;;;;;;4992379;28;20261;-79
2021/08/26 11:11:27;;;;;;;7.73;3.03;;;21.60;99.90;;;;;;4991720;28;20168;-79
2021/08/26 11:14:13;;;;;;;12.43;3.37;;;21.80;99.90;;;;;;4992716;28;20761;-79
2021/08/26 11:16:59;;;;;;;13.63;3.47;;;21.90;99.90;;;;;;4989194;28;20246;-80
2021/08/26 11:19:26;;;;;;;10.17;3.13;;;21.70;99.90;;;;;;4992491;28;20570;-79
2021/08/26 11:21:52;;;;;;;9.53;3.20;;;21.00;99.90;;;;;;4995707;28;20532;-79
2021/08/26 11:24:20;;;;;;;8.83;3.07;;;20.40;99.90;;;;;;4995462;28;20189;-79
2021/08/26 11:26:50;;;;;;;10.13;3.00;;;20.00;99.90;;;;;;4995544;28;20550;-79
2021/08/26 11:29:24;;;;;;;10.77;3.27;;;19.90;99.90;;;;;;4994648;28;20208;-79
2021/08/26 11:31:58;;;;;;;9.03;3.20;;;19.80;99.90;;;;;;4996592;28;20200;-79
2021/08/26 11:34:26;;;;;;;9.07;3.50;;;19.80;99.90;;;;;;4996977;28;20663;-79
2021/08/26 11:37:21;;;;;;;10.07;3.37;;;19.90;99.90;;;;;;4997251;28;20176;-80
2021/08/26 11:40:07;;;;;;;11.80;4.30;;;20.00;99.90;;;;;;4997190;28;20208;-80
2021/08/26 11:42:36;;;;;;;10.93;3.60;;;20.20;99.90;;;;;;4997114;28;20597;-79
2021/08/26 11:45:15;;;;;;;7.67;3.20;;;20.40;99.90;;;;;;4995568;28;20172;-79
2021/08/26 11:47:46;;;;;;;8.93;3.00;;;20.60;99.90;;;;;;4996864;28;20170;-83
2021/08/26 11:50:16;;;;;;;9.00;3.00;;;20.60;99.90;;;;;;4982361;28;20207;-81
2021/08/26 11:52:43;;;;;;;11.07;2.90;;;20.50;99.90;;;;;;5000754;28;20176;-80
2021/08/26 11:55:08;;;;;;;10.20;3.10;;;20.30;99.90;;;;;;4999374;28;20240;-80
2021/08/26 11:57:34;;;;;;;6.33;2.57;;;20.20;99.90;;;;;;4983380;28;20214;-81
2021/08/26 12:00:10;;;;;;;5.63;2.43;;;20.20;99.90;;;;;;5000242;28;20280;-81
2021/08/26 12:02:36;;;;;;;8.13;2.80;;;20.50;99.90;;;;;;4998219;28;20184;-79
2021/08/26 12:05:02;;;;;;;12.33;3.53;;;20.60;99.90;;;;;;4998383;28;20176;-79
2021/08/26 12:07:29;;;;;;;7.73;2.70;;;20.90;99.90;;;;;;4998425;28;20304;-80
2021/08/26 12:09:56;;;;;;;8.43;2.80;;;21.10;99.90;;;;;;4996701;28;20208;-80
2021/08/26 12:12:22;;;;;;;7.60;2.43;;;21.30;99.90;;;;;;4996365;28;20196;-80
2021/08/26 12:14:47;;;;;;;6.00;2.20;;;21.40;99.90;;;;;;5001251;28;20188;-80
2021/08/26 12:17:14;;;;;;;7.37;2.60;;;21.50;99.90;;;;;;4998416;28;20176;-80
2021/08/26 12:19:40;;;;;;;6.27;2.50;;;21.50;99.90;;;;;;4994759;28;20227;-80
2021/08/26 12:22:06;;;;;;;8.87;2.70;;;21.40;99.90;;;;;;5007350;28;20187;-80
2021/08/26 12:24:31;;;;;;;8.67;2.27;;;21.40;99.90;;;;;;5007238;28;20176;-80
2021/08/26 12:27:08;;;;;;;7.07;2.13;;;21.40;99.90;;;;;;4993881;28;20184;-80
2021/08/26 12:29:43;;;;;;;9.20;2.30;;;21.40;99.90;;;;;;4995080;28;20214;-80
2021/08/26 12:32:29;;;;;;;7.53;2.60;;;21.20;99.90;;;;;;5014817;28;20661;-79
2021/08/26 12:35:31;;;;;;;7.13;2.53;;;21.20;99.90;;;;;;4997551;28;20631;-80
2021/08/26 12:37:58;;;;;;;8.33;2.50;;;21.20;99.90;;;;;;4970852;28;20191;-79
2021/08/26 12:40:27;;;;;;;10.13;2.90;;;21.10;99.90;;;;;;4995934;23;20705;-81
2021/08/26 12:43:06;;;;;;;10.13;2.60;;;20.90;99.90;;;;;;4998642;28;20267;-83
2021/08/26 12:45:34;;;;;;;5.67;2.37;;;20.80;99.90;;;;;;5017641;28;20190;-82
2021/08/26 12:48:28;;;;;;;8.40;2.40;;;20.60;99.90;;;;;;5018021;28;20179;-83
2021/08/26 12:51:24;;;;;;;7.60;2.07;;;20.40;99.90;;;;;;5028397;28;20210;-83
2021/08/26 12:53:56;;;;;;;7.27;2.30;;;20.20;99.90;;;;;;5003256;28;20179;-82